createdAt,value
2022-08-31T00:02:01.640Z,4.03
2022-08-31T00:04:30.417Z,4.22
2022-08-31T00:06:57.225Z,4.22
2022-08-31T00:09:24.108Z,6.25
2022-08-31T00:11:50.829Z,5.35
2022-08-31T00:14:18.254Z,4.75
2022-08-31T00:16:46.116Z,4.45
2022-08-31T00:19:13.755Z,4.50
2022-08-31T00:21:40.829Z,4.88
2022-08-31T00:24:09.945Z,7.28
2022-08-31T00:26:36.970Z,4.30
2022-08-31T00:29:05.168Z,4.80
2022-08-31T00:31:32.177Z,3.97
2022-08-31T00:33:59.344Z,4.78
2022-08-31T00:36:27.694Z,6.00
2022-08-31T00:38:55.355Z,5.82
2022-08-31T00:41:25.929Z,4.53
2022-08-31T00:43:54.476Z,3.95
2022-08-31T00:46:30.444Z,4.35
2022-08-31T00:49:13.651Z,3.95
2022-08-31T00:51:53.375Z,3.63
2022-08-31T00:54:26.806Z,4.20
2022-08-31T00:56:54.683Z,5.18
2022-08-31T00:59:22.552Z,4.32
2022-08-31T01:01:49.786Z,4.50
2022-08-31T01:04:16.865Z,4.28
2022-08-31T01:06:44.533Z,4.30
2022-08-31T01:09:12.998Z,5.47
2022-08-31T01:11:41.336Z,4.18
2022-08-31T01:14:08.922Z,3.67
2022-08-31T01:16:43.893Z,4.03
2022-08-31T01:19:22.608Z,4.15
2022-08-31T01:21:59.595Z,4.65
2022-08-31T01:24:27.414Z,4.32
2022-08-31T01:26:55.878Z,4.43
2022-08-31T01:29:23.064Z,4.22
2022-08-31T01:31:49.891Z,4.30
2022-08-31T01:34:16.805Z,4.47
2022-08-31T01:36:48.091Z,3.92
2022-08-31T01:39:14.966Z,4.22
2022-08-31T01:41:44.833Z,4.05
2022-08-31T01:44:18.535Z,4.25
2022-08-31T01:46:46.344Z,4.95
2022-08-31T01:49:15.337Z,4.15
2022-08-31T01:51:42.789Z,4.65
2022-08-31T01:54:10.616Z,4.57
2022-08-31T01:56:41.078Z,5.18
2022-08-31T01:59:09.823Z,4.80
2022-08-31T02:01:42.191Z,4.80
2022-08-31T02:04:13.298Z,4.30
2022-08-31T02:06:47.046Z,4.40
2022-08-31T02:09:15.124Z,4.57
2022-08-31T02:11:42.165Z,4.43
2022-08-31T02:14:10.563Z,3.45
2022-08-31T02:16:37.731Z,3.95
2022-08-31T02:19:05.453Z,5.60
2022-08-31T02:21:32.413Z,4.70
2022-08-31T02:24:04.278Z,5.40
2022-08-31T02:26:31.145Z,3.75
2022-08-31T02:28:57.969Z,3.92
2022-08-31T02:31:24.930Z,4.13
2022-08-31T02:33:51.757Z,4.05
2022-08-31T02:36:18.545Z,4.97
2022-08-31T02:38:45.361Z,5.70
2022-08-31T02:41:12.254Z,5.30
2022-08-31T02:43:39.129Z,4.07
2022-08-31T02:46:06.133Z,3.83
2022-08-31T02:48:32.938Z,4.10
2022-08-31T02:51:05.643Z,4.30
2022-08-31T02:53:32.447Z,6.22
2022-08-31T02:55:59.781Z,5.47
2022-08-31T02:58:26.593Z,4.22
2022-08-31T03:00:53.896Z,5.18
2022-08-31T03:03:21.951Z,3.83
2022-08-31T03:05:50.079Z,4.18
2022-08-31T03:08:17.061Z,7.50
2022-08-31T03:10:44.430Z,3.95
2022-08-31T03:13:11.457Z,4.22
2022-08-31T03:15:38.357Z,4.07
2022-08-31T03:18:06.915Z,4.13
2022-08-31T03:20:34.458Z,4.10
2022-08-31T03:23:03.615Z,3.95
2022-08-31T03:25:31.565Z,6.53
2022-08-31T03:27:58.610Z,4.05
2022-08-31T03:30:27.492Z,3.67
2022-08-31T03:33:02.346Z,4.55
2022-08-31T03:35:30.406Z,4.60
2022-08-31T03:37:57.516Z,3.80
2022-08-31T03:40:24.615Z,4.80
2022-08-31T03:42:51.472Z,4.13
2022-08-31T03:45:18.369Z,3.80
2022-08-31T03:47:45.814Z,3.58
2022-08-31T03:50:13.382Z,4.03
2022-08-31T03:52:40.144Z,3.63
2022-08-31T03:55:08.323Z,5.47
2022-08-31T03:57:35.262Z,4.40
2022-08-31T04:00:03.928Z,4.13
2022-08-31T04:02:35.446Z,4.43
2022-08-31T04:05:04.533Z,4.07
2022-08-31T04:07:42.024Z,5.05
2022-08-31T04:10:13.718Z,4.13
2022-08-31T04:12:40.966Z,4.22
2022-08-31T04:15:09.056Z,3.88
2022-08-31T04:17:36.117Z,3.85
2022-08-31T04:20:03.870Z,3.47
2022-08-31T04:22:30.675Z,4.22
2022-08-31T04:24:57.592Z,5.53
2022-08-31T04:27:24.368Z,3.85
2022-08-31T04:29:51.120Z,5.72
2022-08-31T04:32:17.843Z,4.00
2022-08-31T04:34:44.628Z,3.55
2022-08-31T04:37:14.472Z,3.95
2022-08-31T04:39:51.068Z,4.32
2022-08-31T04:42:18.120Z,5.05
2022-08-31T04:44:44.889Z,3.95
2022-08-31T04:47:11.700Z,4.13
2022-08-31T04:49:38.816Z,4.22
2022-08-31T04:52:06.618Z,4.22
2022-08-31T04:54:33.444Z,4.75
2022-08-31T04:57:00.356Z,5.60
2022-08-31T04:59:27.586Z,4.38
2022-08-31T05:01:55.557Z,4.10
2022-08-31T05:04:25.930Z,5.88
2022-08-31T05:06:52.875Z,4.22
2022-08-31T05:09:22.865Z,4.45
2022-08-31T05:11:52.442Z,5.53
2022-08-31T05:14:23.039Z,4.13
2022-08-31T05:16:51.269Z,4.25
2022-08-31T05:19:19.185Z,7.20
2022-08-31T05:21:46.567Z,5.93
2022-08-31T05:24:22.892Z,4.55
2022-08-31T05:26:52.936Z,3.72
2022-08-31T05:29:22.681Z,4.00
2022-08-31T05:31:52.479Z,4.25
2022-08-31T05:34:21.609Z,4.35
2022-08-31T05:36:52.536Z,4.97
2022-08-31T05:39:19.622Z,4.20
2022-08-31T05:41:48.399Z,5.97
2022-08-31T05:44:19.890Z,4.45
2022-08-31T05:46:52.483Z,3.90
2022-08-31T05:49:24.177Z,5.28
2022-08-31T05:51:56.494Z,3.97
2022-08-31T05:54:23.355Z,5.38
2022-08-31T05:56:50.215Z,3.75
2022-08-31T05:59:17.086Z,4.65
2022-08-31T06:01:43.936Z,4.45
2022-08-31T06:04:11.373Z,4.43
2022-08-31T06:06:39.420Z,5.40
2022-08-31T06:09:08.317Z,7.78
2022-08-31T06:11:35.782Z,6.28
2022-08-31T06:14:05.733Z,7.78
2022-08-31T06:16:33.467Z,4.43
2022-08-31T06:19:03.347Z,6.85
2022-08-31T06:21:37.748Z,8.15
2022-08-31T06:24:06.800Z,7.90
2022-08-31T06:26:35.109Z,8.38
2022-08-31T06:29:05.186Z,9.07
2022-08-31T06:31:35.806Z,8.55
2022-08-31T06:34:04.252Z,6.25
2022-08-31T06:36:32.085Z,6.75
2022-08-31T06:39:00.388Z,6.85
2022-08-31T06:41:35.676Z,7.95
2022-08-31T06:44:05.825Z,10.00
2022-08-31T06:46:34.167Z,7.28
2022-08-31T06:49:01.217Z,6.70
2022-08-31T06:51:29.190Z,7.53
2022-08-31T06:54:04.404Z,6.45
2022-08-31T06:56:43.296Z,9.55
2022-08-31T06:59:10.993Z,8.52
2022-08-31T07:01:39.606Z,6.95
2022-08-31T07:04:08.619Z,6.40
2022-08-31T07:06:38.062Z,9.00
2022-08-31T07:09:06.998Z,6.80
2022-08-31T07:11:45.777Z,8.27
2022-08-31T07:14:16.801Z,7.35
2022-08-31T07:16:44.874Z,10.80
2022-08-31T07:19:12.956Z,6.85
2022-08-31T07:21:46.121Z,7.53
2022-08-31T07:24:17.916Z,7.55
2022-08-31T07:26:49.126Z,6.43
2022-08-31T07:29:18.526Z,5.90
2022-08-31T07:31:48.968Z,6.15
2022-08-31T07:34:21.221Z,5.03
2022-08-31T07:37:07.207Z,5.68
2022-08-31T07:42:28.772Z,3.80
2022-08-31T07:45:01.803Z,4.45
2022-08-31T07:47:29.257Z,4.60
2022-08-31T07:49:58.434Z,9.60
2022-08-31T07:52:28.771Z,13.55
2022-08-31T07:55:07.680Z,12.43
2022-08-31T07:57:37.826Z,9.48
2022-08-31T08:00:10.060Z,7.10
2022-08-31T08:02:38.344Z,7.22
2022-08-31T08:05:10.393Z,5.72
2022-08-31T08:07:39.567Z,6.28
2022-08-31T08:10:14.000Z,7.43
2022-08-31T08:12:48.489Z,6.93
2022-08-31T08:15:18.008Z,5.53
2022-08-31T08:17:44.762Z,6.28
2022-08-31T08:20:13.766Z,7.38
2022-08-31T08:22:55.205Z,9.38
2022-08-31T08:25:25.700Z,7.07
2022-08-31T08:27:54.583Z,7.40
2022-08-31T08:30:22.048Z,6.13
2022-08-31T08:32:48.920Z,9.57
2022-08-31T08:35:16.548Z,17.77
2022-08-31T08:38:07.036Z,13.23
2022-08-31T08:40:42.388Z,10.45
2022-08-31T08:43:18.374Z,9.77
2022-08-31T08:45:48.560Z,8.88
2022-08-31T08:48:19.313Z,9.98
2022-08-31T08:50:46.127Z,9.95
2022-08-31T08:53:15.316Z,9.38
2022-08-31T08:55:42.650Z,7.00
2022-08-31T08:58:13.459Z,7.72
2022-08-31T09:00:46.641Z,5.85
2022-08-31T09:03:39.193Z,8.98
2022-08-31T09:06:15.384Z,9.27
2022-08-31T09:08:48.222Z,10.48
2022-08-31T09:11:46.561Z,8.75
2022-08-31T09:14:22.242Z,6.80
2022-08-31T09:17:16.354Z,7.25
2022-08-31T09:20:01.437Z,7.25
2022-08-31T09:22:30.440Z,5.63
2022-08-31T09:24:59.815Z,6.32
2022-08-31T09:27:40.216Z,4.57
2022-08-31T09:30:07.916Z,6.85
2022-08-31T09:32:36.119Z,4.90
2022-08-31T09:35:06.855Z,12.18
2022-08-31T09:37:50.495Z,13.43
2022-08-31T09:40:31.759Z,12.55
2022-08-31T09:43:05.998Z,10.27
2022-08-31T09:45:41.396Z,10.80
2022-08-31T09:48:09.282Z,10.52
2022-08-31T09:50:45.748Z,14.70
2022-08-31T09:53:33.517Z,9.20
2022-08-31T09:56:18.449Z,8.73
2022-08-31T09:59:02.870Z,8.43
2022-08-31T10:01:45.423Z,7.22
2022-08-31T10:04:20.289Z,6.95
2022-08-31T10:07:01.818Z,5.73
2022-08-31T10:09:37.255Z,7.40
2022-08-31T10:14:42.072Z,4.78
2022-08-31T10:17:26.064Z,6.82
2022-08-31T10:20:06.066Z,5.15
2022-08-31T10:22:47.121Z,6.70
2022-08-31T10:25:18.508Z,7.72
2022-08-31T10:28:12.317Z,7.85
2022-08-31T10:30:46.480Z,7.43
2022-08-31T10:33:48.807Z,7.38
2022-08-31T10:36:16.138Z,9.50
2022-08-31T10:38:49.663Z,8.98
2022-08-31T10:41:16.376Z,6.25
2022-08-31T10:43:45.947Z,5.18
2022-08-31T10:46:14.611Z,6.88
2022-08-31T10:48:47.275Z,5.22
2022-08-31T10:52:06.239Z,7.63
2022-08-31T10:54:44.725Z,6.40
2022-08-31T10:57:32.028Z,6.63
2022-08-31T11:00:41.729Z,4.97
2022-08-31T11:03:37.124Z,7.45
2022-08-31T11:06:17.752Z,4.32
2022-08-31T11:08:59.522Z,3.97
2022-08-31T11:11:47.590Z,4.80
2022-08-31T11:15:13.070Z,4.05
2022-08-31T11:17:48.077Z,5.85
2022-08-31T11:20:21.970Z,6.57
2022-08-31T11:23:11.366Z,6.55
2022-08-31T11:26:19.106Z,7.30
2022-08-31T11:29:13.021Z,6.63
2022-08-31T11:31:43.203Z,8.07
2022-08-31T11:34:25.636Z,8.80
2022-08-31T11:37:01.167Z,6.15
2022-08-31T11:42:15.306Z,7.17
2022-08-31T11:44:44.842Z,8.77
2022-08-31T11:47:27.813Z,14.98
2022-08-31T11:50:07.835Z,19.48
2022-08-31T11:52:56.714Z,18.00
2022-08-31T11:55:27.692Z,14.10
2022-08-31T11:58:07.449Z,17.70
2022-08-31T12:00:58.577Z,15.23
2022-08-31T12:04:06.598Z,11.88
2022-08-31T12:06:58.537Z,15.55
2022-08-31T12:10:03.998Z,13.98
2022-08-31T12:13:11.505Z,10.15
2022-08-31T12:16:01.214Z,8.85
2022-08-31T12:19:17.377Z,8.15
2022-08-31T12:22:25.318Z,8.35
2022-08-31T12:25:14.677Z,6.93
2022-08-31T12:30:54.397Z,8.10
2022-08-31T12:33:31.475Z,7.93
2022-08-31T12:36:48.952Z,8.00
2022-08-31T12:39:34.413Z,9.35
2022-08-31T12:42:06.391Z,11.32
2022-08-31T12:44:41.033Z,13.55
2022-08-31T12:47:31.942Z,13.73
2022-08-31T12:50:13.826Z,13.23
2022-08-31T12:53:27.955Z,11.20
2022-08-31T12:56:27.910Z,10.20
2022-08-31T12:59:40.841Z,9.73
2022-08-31T13:02:14.273Z,8.45
2022-08-31T13:04:45.448Z,8.40
2022-08-31T13:07:34.075Z,7.00
2022-08-31T13:10:03.822Z,10.00
2022-08-31T13:12:30.611Z,6.57
2022-08-31T13:14:57.350Z,5.57
2022-08-31T13:17:24.222Z,6.30
2022-08-31T13:19:58.899Z,6.80
2022-08-31T13:22:30.937Z,7.20
2022-08-31T13:25:16.623Z,9.82
2022-08-31T13:27:51.615Z,10.52
2022-08-31T13:30:22.457Z,8.23
2022-08-31T13:32:54.565Z,11.23
2022-08-31T13:35:25.495Z,8.32
2022-08-31T13:38:06.270Z,8.43
2022-08-31T13:40:37.501Z,9.80
2022-08-31T13:43:09.911Z,11.25
2022-08-31T13:45:53.750Z,10.52
2022-08-31T13:48:33.310Z,12.65
2022-08-31T13:51:13.569Z,9.63
2022-08-31T13:54:04.758Z,8.90
2022-08-31T13:56:50.267Z,9.13
2022-08-31T13:59:26.687Z,7.30
2022-08-31T14:01:59.750Z,6.88
2022-08-31T14:04:43.763Z,7.45
2022-08-31T14:07:23.011Z,6.18
2022-08-31T14:09:57.982Z,6.15
2022-08-31T14:12:40.131Z,5.35
2022-08-31T14:15:17.628Z,6.05
2022-08-31T14:21:23.832Z,7.57
2022-08-31T14:23:59.197Z,7.75
2022-08-31T14:26:28.017Z,7.38
2022-08-31T14:29:01.236Z,7.78
2022-08-31T14:31:34.016Z,7.53
2022-08-31T14:34:09.438Z,6.95
2022-08-31T14:36:50.329Z,5.95
2022-08-31T14:39:17.147Z,5.22
2022-08-31T14:41:45.637Z,7.82
2022-08-31T14:44:13.576Z,5.50
2022-08-31T14:46:42.915Z,5.95
2022-08-31T14:49:10.779Z,5.38
2022-08-31T14:51:39.240Z,5.95
2022-08-31T14:54:08.845Z,6.20
2022-08-31T14:56:46.003Z,5.30
2022-08-31T14:59:16.037Z,6.95
2022-08-31T15:01:46.905Z,5.35
2022-08-31T15:04:17.242Z,5.50
2022-08-31T15:06:49.108Z,6.57
2022-08-31T15:09:16.542Z,5.90
2022-08-31T15:11:45.192Z,5.88
2022-08-31T15:14:12.618Z,6.03
2022-08-31T15:16:45.617Z,5.00
2022-08-31T15:19:13.915Z,7.50
2022-08-31T15:21:52.795Z,5.13
2022-08-31T15:24:32.704Z,6.10
2022-08-31T15:27:00.019Z,5.30
2022-08-31T15:29:28.992Z,5.80
2022-08-31T15:31:58.602Z,6.97
2022-08-31T15:34:29.614Z,12.70
2022-08-31T15:37:02.773Z,14.02
2022-08-31T15:39:32.612Z,17.30
2022-08-31T15:42:01.421Z,18.55
2022-08-31T15:44:28.227Z,14.77
2022-08-31T15:47:13.965Z,10.35
2022-08-31T15:49:43.593Z,13.27
2022-08-31T15:52:10.781Z,11.25
2022-08-31T15:54:40.604Z,8.20
2022-08-31T15:57:08.093Z,10.27
2022-08-31T15:59:36.213Z,15.55
2022-08-31T16:02:04.852Z,17.58
2022-08-31T16:04:33.366Z,14.20
2022-08-31T16:07:01.423Z,10.65
2022-08-31T16:09:28.558Z,10.65
2022-08-31T16:11:55.450Z,7.10
2022-08-31T16:14:23.070Z,7.68
2022-08-31T16:16:53.306Z,6.80
2022-08-31T16:19:34.682Z,7.07
2022-08-31T16:22:03.578Z,5.53
2022-08-31T16:24:35.449Z,6.07
2022-08-31T16:27:08.119Z,6.32
2022-08-31T16:29:35.800Z,8.25
2022-08-31T16:32:03.688Z,6.25
2022-08-31T16:34:31.618Z,6.03
2022-08-31T16:36:59.890Z,7.32
2022-08-31T16:39:28.288Z,5.60
2022-08-31T16:41:55.414Z,4.82
2022-08-31T16:44:22.147Z,5.85
2022-08-31T16:46:49.232Z,5.60
2022-08-31T16:49:34.234Z,5.95
2022-08-31T16:52:11.059Z,6.57
2022-08-31T16:54:44.324Z,5.78
2022-08-31T16:57:12.982Z,7.63
2022-08-31T16:59:43.470Z,6.30
2022-08-31T17:02:11.957Z,6.15
2022-08-31T17:04:52.040Z,5.68
2022-08-31T17:07:20.065Z,5.88
2022-08-31T17:09:46.891Z,5.45
2022-08-31T17:12:16.795Z,5.03
2022-08-31T17:14:48.392Z,4.97
2022-08-31T17:17:19.011Z,4.78
2022-08-31T17:19:46.682Z,5.53
2022-08-31T17:22:23.427Z,5.28
2022-08-31T17:24:56.313Z,4.45
2022-08-31T17:27:24.585Z,4.80
2022-08-31T17:29:53.844Z,5.13
2022-08-31T17:32:23.088Z,5.97
2022-08-31T17:34:51.704Z,4.50
2022-08-31T17:37:30.328Z,5.93
2022-08-31T17:39:58.950Z,4.30
2022-08-31T17:42:27.174Z,4.70
2022-08-31T17:44:55.247Z,4.65
2022-08-31T17:47:24.741Z,5.03
2022-08-31T17:49:52.649Z,6.65
2022-08-31T17:52:21.704Z,4.32
2022-08-31T17:54:50.952Z,4.57
2022-08-31T17:57:22.268Z,5.07
2022-08-31T17:59:49.057Z,5.90
2022-08-31T18:02:32.338Z,4.80
2022-08-31T18:05:00.108Z,6.35
2022-08-31T18:07:27.373Z,4.50
2022-08-31T18:09:54.204Z,4.80
2022-08-31T18:12:22.781Z,5.28
2022-08-31T18:14:50.419Z,4.93
2022-08-31T18:17:18.203Z,8.88
2022-08-31T18:19:45.437Z,5.18
2022-08-31T18:22:14.371Z,5.13
2022-08-31T18:24:42.152Z,5.55
2022-08-31T18:27:11.548Z,5.30
2022-08-31T18:29:39.164Z,6.07
2022-08-31T18:32:07.727Z,6.35
2022-08-31T18:34:52.050Z,20.15
2022-08-31T18:37:25.621Z,43.08
2022-08-31T18:40:11.076Z,26.30
2022-08-31T18:42:57.167Z,13.93
2022-08-31T18:45:26.474Z,10.20
2022-08-31T18:48:23.709Z,16.10
2022-08-31T18:50:44.668Z,47.78
2022-08-31T18:53:15.615Z,46.40
2022-08-31T18:55:54.835Z,13.68
2022-08-31T18:58:21.884Z,8.65
2022-08-31T19:00:57.312Z,8.15
2022-08-31T19:03:25.689Z,5.25
2022-08-31T19:05:56.510Z,6.63
2022-08-31T19:08:23.720Z,12.45
2022-08-31T19:10:51.292Z,34.35
2022-08-31T19:13:19.212Z,31.70
2022-08-31T19:15:46.167Z,24.77
2022-08-31T19:18:13.241Z,11.73
2022-08-31T19:20:41.120Z,28.55
2022-08-31T19:23:08.414Z,27.88
2022-08-31T19:25:48.371Z,20.02
2022-08-31T19:28:15.209Z,22.73
2022-08-31T19:30:47.568Z,11.23
2022-08-31T19:33:14.826Z,7.78
2022-08-31T19:35:41.572Z,35.63
2022-08-31T19:38:08.694Z,37.63
2022-08-31T19:40:39.979Z,18.98
2022-08-31T19:45:54.199Z,6.68
2022-08-31T19:48:23.355Z,5.60
2022-08-31T19:50:51.856Z,9.05
2022-08-31T19:53:22.386Z,5.82
2022-08-31T19:55:51.566Z,4.63
2022-08-31T19:58:26.267Z,5.15
2022-08-31T20:01:00.798Z,5.35
2022-08-31T20:03:31.282Z,5.07
2022-08-31T20:06:06.042Z,5.72
2022-08-31T20:08:33.956Z,7.30
2022-08-31T20:11:00.820Z,5.18
2022-08-31T20:13:29.027Z,5.28
2022-08-31T20:15:56.411Z,5.15
2022-08-31T20:18:26.513Z,4.75
2022-08-31T20:20:55.041Z,5.15
2022-08-31T20:23:22.001Z,4.97
2022-08-31T20:25:51.265Z,4.97
2022-08-31T20:28:23.116Z,5.00
2022-08-31T20:30:51.593Z,4.20
2022-08-31T20:33:18.914Z,4.35
2022-08-31T20:35:47.886Z,5.32
2022-08-31T20:38:18.444Z,4.20
2022-08-31T20:40:48.892Z,6.55
2022-08-31T20:43:16.108Z,6.22
2022-08-31T20:45:43.060Z,4.78
2022-08-31T20:48:28.860Z,5.00
2022-08-31T20:50:56.114Z,4.95
2022-08-31T20:53:38.980Z,5.63
2022-08-31T20:56:11.206Z,4.82
2022-08-31T20:58:43.906Z,7.38
2022-08-31T21:01:13.621Z,4.05
2022-08-31T21:03:40.930Z,4.03
2022-08-31T21:06:11.685Z,4.43
2022-08-31T21:08:41.002Z,4.75
2022-08-31T21:11:16.057Z,5.05
2022-08-31T21:13:44.489Z,11.15
2022-08-31T21:16:11.573Z,22.30
2022-08-31T21:18:40.801Z,14.68
2022-08-31T21:21:13.267Z,20.60
2022-08-31T21:23:40.184Z,18.65
2022-08-31T21:26:10.258Z,12.43
2022-08-31T21:28:39.890Z,8.75
2022-08-31T21:31:15.676Z,5.60
2022-08-31T21:33:57.597Z,6.57
2022-08-31T21:36:26.697Z,4.43
2022-08-31T21:38:55.849Z,4.35
2022-08-31T21:41:26.888Z,4.32
2022-08-31T21:43:55.984Z,4.80
2022-08-31T21:46:28.839Z,4.57
2022-08-31T21:48:58.223Z,4.82
2022-08-31T21:51:31.964Z,5.65
2022-08-31T21:54:02.750Z,4.03
2022-08-31T21:56:32.054Z,5.93
2022-08-31T21:59:00.501Z,7.55
2022-08-31T22:01:29.528Z,18.95
2022-08-31T22:03:59.420Z,23.05
2022-08-31T22:06:31.823Z,26.73
2022-08-31T22:09:01.284Z,19.58
2022-08-31T22:11:30.891Z,16.38
2022-08-31T22:13:59.617Z,17.27
2022-08-31T22:16:27.921Z,13.63
2022-08-31T22:19:01.657Z,12.18
2022-08-31T22:21:32.055Z,30.08
2022-08-31T22:24:01.153Z,25.90
2022-08-31T22:26:43.940Z,11.35
2022-08-31T22:29:13.622Z,14.32
2022-08-31T22:31:42.611Z,16.67
2022-08-31T22:34:11.310Z,14.15
2022-08-31T22:36:38.471Z,9.77
2022-08-31T22:39:12.066Z,10.95
2022-08-31T22:41:41.229Z,9.82
2022-08-31T22:44:10.885Z,7.30
2022-08-31T22:46:38.324Z,5.18
2022-08-31T22:49:06.218Z,5.05
2022-08-31T22:51:35.821Z,3.95
2022-08-31T22:54:04.103Z,4.10
2022-08-31T22:56:33.054Z,5.43
2022-08-31T22:59:03.372Z,3.15
2022-08-31T23:01:32.173Z,3.88
2022-08-31T23:04:01.492Z,4.07
2022-08-31T23:06:30.307Z,3.40
2022-08-31T23:08:58.372Z,3.30
2022-08-31T23:11:26.599Z,3.50
2022-08-31T23:13:55.663Z,4.05
2022-08-31T23:16:35.528Z,3.60
2022-08-31T23:19:11.265Z,3.25
2022-08-31T23:21:46.828Z,2.95
2022-08-31T23:24:23.562Z,3.17
2022-08-31T23:26:52.603Z,3.15
2022-08-31T23:29:19.843Z,3.88
2022-08-31T23:31:48.618Z,3.35
2022-08-31T23:34:16.840Z,3.38
2022-08-31T23:36:48.888Z,2.95
2022-08-31T23:39:18.120Z,3.10
2022-08-31T23:41:45.667Z,3.85
2022-08-31T23:44:14.552Z,3.25
2022-08-31T23:46:45.469Z,3.25
2022-08-31T23:49:15.016Z,4.07
2022-08-31T23:51:41.922Z,4.40
2022-08-31T23:54:10.518Z,3.55
2022-08-31T23:56:40.803Z,3.40
2022-08-31T23:59:18.054Z,3.28
